Time;durP1;ratioP1;P1;durP2;ratioP2;P2;SDS_P1;SDS_P2;PMS_P1;PMS_P2;Temp;Humidity;BMP_temperature;BMP_pressure;BME280_temperature;BME280_humidity;BME280_pressure;Samples;Min_cycle;Max_cycle;Signal;HPM_P1;HPM_P2
2020/12/18 00:00:07;;;;;;;285.65;221.07;;;20.10;48.80;;;;;;498515;54;20980;-21
2020/12/18 00:00:38;;;;;;;285.10;226.73;;;20.10;48.70;;;;;;525331;54;20980;-19
2020/12/18 00:01:09;;;;;;;285.10;223.18;;;20.10;48.60;;;;;;498950;54;20980;-19
2020/12/18 00:01:40;;;;;;;287.12;226.88;;;20.10;48.70;;;;;;521924;54;21036;-21
2020/12/18 00:02:11;;;;;;;279.38;216.77;;;20.10;48.80;;;;;;475944;58;20965;-22
2020/12/18 00:02:42;;;;;;;286.90;227.02;;;20.10;48.80;;;;;;475914;58;20952;-21
2020/12/18 00:03:13;;;;;;;279.33;221.70;;;20.10;48.70;;;;;;475933;58;21023;-20
2020/12/18 00:03:43;;;;;;;287.42;225.80;;;20.10;48.70;;;;;;476125;55;21138;-18
2020/12/18 00:04:14;;;;;;;282.52;224.15;;;20.10;48.70;;;;;;481769;54;21043;-18
2020/12/18 00:04:46;;;;;;;281.77;226.40;;;20.10;48.60;;;;;;498606;54;21489;-20
2020/12/18 00:05:17;;;;;;;286.95;227.20;;;20.10;48.70;;;;;;508675;54;20952;-20
2020/12/18 00:05:48;;;;;;;280.23;225.57;;;20.10;48.80;;;;;;497979;54;20940;-22
2020/12/18 00:06:23;;;;;;;287.50;223.43;;;20.10;48.80;;;;;;483653;54;21418;-20
2020/12/18 00:06:54;;;;;;;278.85;220.63;;;20.10;48.80;;;;;;476657;54;21031;-22
2020/12/18 00:07:25;;;;;;;286.02;229.63;;;20.10;48.80;;;;;;476567;54;21067;-23
2020/12/18 00:07:56;;;;;;;277.17;221.32;;;20.10;48.80;;;;;;508071;54;21578;-21
2020/12/18 00:08:27;;;;;;;277.73;219.02;;;20.10;48.80;;;;;;476003;58;22319;-22
2020/12/18 00:08:57;;;;;;;278.17;218.98;;;20.10;48.90;;;;;;485027;54;22126;-22
2020/12/18 00:09:29;;;;;;;282.62;222.60;;;20.10;48.70;;;;;;486496;54;21010;-21
2020/12/18 00:10:00;;;;;;;280.30;224.37;;;20.10;48.60;;;;;;476099;58;20928;-22
2020/12/18 00:10:31;;;;;;;286.00;224.00;;;20.10;48.70;;;;;;493823;54;21390;-21
2020/12/18 00:11:01;;;;;;;272.80;215.43;;;20.10;48.70;;;;;;514990;54;21027;-21
2020/12/18 00:11:32;;;;;;;283.90;226.93;;;20.10;48.80;;;;;;475967;58;21000;-20
2020/12/18 00:12:03;;;;;;;277.58;222.63;;;20.10;48.70;;;;;;495106;54;20967;-19
2020/12/18 00:12:34;;;;;;;282.60;224.15;;;20.10;48.70;;;;;;492789;54;21122;-22
2020/12/18 00:13:06;;;;;;;277.33;219.52;;;20.10;48.60;;;;;;476330;55;20932;-21
2020/12/18 00:13:39;;;;;;;274.20;218.80;;;20.10;48.70;;;;;;502009;54;20936;-21
2020/12/18 00:14:11;;;;;;;284.17;223.48;;;20.10;48.60;;;;;;516083;54;21027;-22
2020/12/18 00:14:42;;;;;;;279.05;219.45;;;20.10;48.60;;;;;;490100;54;20998;-18
2020/12/18 00:15:13;;;;;;;277.92;217.77;;;20.10;48.60;;;;;;492712;54;20995;-22
2020/12/18 00:15:44;;;;;;;278.80;218.12;;;20.10;48.80;;;;;;476145;55;21039;-21
2020/12/18 00:16:15;;;;;;;278.52;219.18;;;20.10;48.80;;;;;;512645;54;20988;-21
2020/12/18 00:16:46;;;;;;;274.15;216.15;;;20.10;48.70;;;;;;475943;58;21031;-21
2020/12/18 00:17:17;;;;;;;281.27;224.07;;;20.10;48.60;;;;;;475942;55;20956;-19
2020/12/18 00:17:47;;;;;;;274.30;219.07;;;20.10;48.70;;;;;;499923;54;21028;-19
2020/12/18 00:18:18;;;;;;;281.30;221.48;;;20.10;48.60;;;;;;493457;54;21000;-23
2020/12/18 00:18:49;;;;;;;285.65;225.90;;;20.10;48.60;;;;;;522070;54;21422;-20
2020/12/18 00:19:22;;;;;;;281.30;219.50;;;20.10;48.70;;;;;;501364;54;21024;-21
2020/12/18 00:19:53;;;;;;;281.30;222.93;;;20.10;48.70;;;;;;502328;54;20952;-22
2020/12/18 00:20:24;;;;;;;280.33;223.27;;;20.10;48.70;;;;;;517480;54;21063;-19
2020/12/18 00:20:55;;;;;;;274.23;218.25;;;20.10;48.80;;;;;;505090;54;20952;-23
2020/12/18 00:21:26;;;;;;;278.52;219.52;;;20.10;49.40;;;;;;479526;54;21067;-23
2020/12/18 00:21:57;;;;;;;279.42;221.55;;;20.10;48.60;;;;;;475918;58;20992;-23
2020/12/18 00:22:28;;;;;;;280.15;222.85;;;20.10;48.60;;;;;;478952;54;21035;-22
2020/12/18 00:22:59;;;;;;;282.40;225.10;;;20.10;48.50;;;;;;482166;54;21160;-21
2020/12/18 00:23:31;;;;;;;274.85;216.70;;;20.10;48.50;;;;;;500333;54;21334;-23
2020/12/18 00:24:02;;;;;;;274.48;214.95;;;20.10;48.80;;;;;;491030;54;20963;-21
2020/12/18 00:24:33;;;;;;;279.02;221.30;;;20.10;48.70;;;;;;491420;54;20984;-23
2020/12/18 00:25:04;;;;;;;286.65;228.37;;;20.10;48.60;;;;;;475948;58;20988;-23
2020/12/18 00:25:35;;;;;;;281.52;223.05;;;20.10;48.60;;;;;;486307;54;21067;-23
2020/12/18 00:26:05;;;;;;;276.05;221.40;;;20.10;48.50;;;;;;488753;54;21020;-21
2020/12/18 00:26:36;;;;;;;272.80;217.93;;;20.10;48.50;;;;;;489498;54;21087;-23
2020/12/18 00:27:07;;;;;;;273.73;217.15;;;20.10;49.30;;;;;;520016;54;20928;-24
2020/12/18 00:27:40;;;;;;;278.95;220.73;;;20.10;48.60;;;;;;518801;54;21939;-23
2020/12/18 00:28:10;;;;;;;267.77;212.57;;;20.10;48.70;;;;;;517244;54;21023;-23
2020/12/18 00:28:42;;;;;;;277.60;218.37;;;20.10;48.60;;;;;;493419;54;21364;-20
2020/12/18 00:29:12;;;;;;;271.23;213.75;;;20.10;48.50;;;;;;489716;54;20991;-22
2020/12/18 00:29:43;;;;;;;271.52;212.80;;;20.10;48.40;;;;;;494522;54;20996;-21
2020/12/18 00:30:15;;;;;;;284.45;221.65;;;20.10;48.50;;;;;;493388;54;20932;-21
2020/12/18 00:30:49;;;;;;;272.92;214.10;;;20.10;48.40;;;;;;493353;54;20932;-20
2020/12/18 00:31:27;;;;;;;279.20;221.50;;;20.10;48.50;;;;;;483930;54;21081;-24
2020/12/18 00:31:58;;;;;;;281.13;220.43;;;20.10;48.60;;;;;;477021;54;21040;-20
2020/12/18 00:32:29;;;;;;;278.48;220.85;;;20.10;48.50;;;;;;502682;54;20968;-20
2020/12/18 00:33:00;;;;;;;270.83;216.88;;;20.10;48.60;;;;;;503226;54;20945;-22
2020/12/18 00:33:30;;;;;;;287.77;225.68;;;20.10;48.50;;;;;;485962;54;21470;-22
2020/12/18 00:34:01;;;;;;;266.90;209.35;;;20.10;48.40;;;;;;487217;54;20951;-21
2020/12/18 00:34:32;;;;;;;273.23;216.48;;;20.10;48.40;;;;;;479155;54;20981;-21
2020/12/18 00:35:05;;;;;;;278.10;219.20;;;20.10;49.00;;;;;;479753;54;21470;-18
2020/12/18 00:35:36;;;;;;;273.67;213.93;;;20.10;48.30;;;;;;476494;54;20972;-20
2020/12/18 00:36:11;;;;;;;283.30;224.85;;;20.10;48.40;;;;;;515810;54;20932;-21
2020/12/18 00:36:41;;;;;;;274.00;221.27;;;20.10;48.40;;;;;;484531;54;20980;-21
2020/12/18 00:37:12;;;;;;;270.10;216.77;;;20.10;48.70;;;;;;489771;54;20948;-17
2020/12/18 00:37:43;;;;;;;270.10;210.48;;;20.10;48.60;;;;;;498165;54;20944;-20
2020/12/18 00:38:14;;;;;;;278.70;219.50;;;20.10;48.50;;;;;;489233;54;21325;-18
2020/12/18 00:38:45;;;;;;;280.02;222.88;;;20.10;48.50;;;;;;498225;54;21003;-21
2020/12/18 00:39:16;;;;;;;280.00;219.75;;;20.10;48.60;;;;;;517983;54;21063;-19
2020/12/18 00:39:47;;;;;;;274.25;217.50;;;20.10;48.50;;;;;;492803;54;20988;-16
2020/12/18 00:40:18;;;;;;;269.30;213.30;;;20.10;48.50;;;;;;475981;58;21391;-16
2020/12/18 00:40:49;;;;;;;279.38;217.77;;;20.10;48.40;;;;;;499879;54;20935;-18
2020/12/18 00:41:20;;;;;;;274.52;214.73;;;20.10;48.30;;;;;;490074;54;20928;-20
2020/12/18 00:41:52;;;;;;;279.98;223.50;;;20.10;48.60;;;;;;485391;54;20980;-20
2020/12/18 00:42:23;;;;;;;267.55;215.70;;;20.10;48.60;;;;;;487204;54;21322;-20
2020/12/18 00:42:54;;;;;;;275.77;215.68;;;20.10;48.40;;;;;;497857;54;20992;-22
2020/12/18 00:43:26;;;;;;;275.05;217.95;;;20.10;48.60;;;;;;478301;54;21430;-17
2020/12/18 00:43:58;;;;;;;273.40;216.20;;;20.10;48.50;;;;;;476020;58;21439;-19
2020/12/18 00:44:29;;;;;;;281.80;219.18;;;20.10;48.40;;;;;;498061;54;21060;-20
2020/12/18 00:45:00;;;;;;;273.25;213.15;;;20.10;48.40;;;;;;498740;54;20968;-19
2020/12/18 00:45:31;;;;;;;277.10;219.25;;;20.10;48.50;;;;;;521182;54;20952;-19
2020/12/18 00:46:06;;;;;;;268.23;215.45;;;20.10;48.50;;;;;;476076;58;21012;-21
2020/12/18 00:46:37;;;;;;;273.67;217.05;;;20.10;48.40;;;;;;475983;58;21004;-21
2020/12/18 00:47:08;;;;;;;274.15;215.70;;;20.10;48.40;;;;;;476138;55;21020;-19
2020/12/18 00:47:39;;;;;;;279.15;221.23;;;20.10;48.40;;;;;;491720;54;20971;-19
2020/12/18 00:48:12;;;;;;;270.42;213.87;;;20.10;48.60;;;;;;476093;58;21079;-20
2020/12/18 00:48:43;;;;;;;279.25;220.27;;;20.10;48.40;;;;;;475954;58;21486;-18
2020/12/18 00:49:14;;;;;;;280.37;219.37;;;20.10;48.40;;;;;;524005;54;20979;-18
2020/12/18 00:49:47;;;;;;;274.00;218.93;;;20.10;48.50;;;;;;500408;54;20904;-19
2020/12/18 00:50:18;;;;;;;279.35;223.40;;;20.10;48.50;;;;;;520253;54;20928;-20
2020/12/18 00:50:49;;;;;;;278.52;217.43;;;20.10;48.40;;;;;;485780;54;21039;-19
2020/12/18 00:51:20;;;;;;;268.12;211.75;;;20.10;48.40;;;;;;476098;58;21632;-17
2020/12/18 00:51:53;;;;;;;272.88;212.27;;;20.10;48.40;;;;;;486018;54;20980;-22
2020/12/18 00:52:25;;;;;;;266.80;214.77;;;20.10;48.30;;;;;;475962;58;21000;-16
2020/12/18 00:52:56;;;;;;;273.92;219.52;;;20.10;48.30;;;;;;490992;54;21021;-18
2020/12/18 00:53:29;;;;;;;274.40;218.15;;;20.10;48.30;;;;;;499519;54;21395;-17
2020/12/18 00:54:00;;;;;;;280.42;225.32;;;20.10;48.60;;;;;;504865;54;20924;-16
2020/12/18 00:54:31;;;;;;;274.90;221.07;;;20.10;48.50;;;;;;486848;54;21083;-18
2020/12/18 00:55:02;;;;;;;276.40;221.73;;;20.10;48.30;;;;;;476152;58;21025;-22
2020/12/18 00:55:33;;;;;;;282.75;220.85;;;20.10;48.40;;;;;;479158;54;21498;-21
2020/12/18 00:56:10;;;;;;;279.87;222.52;;;20.10;48.40;;;;;;503527;54;21474;-20
2020/12/18 00:56:44;;;;;;;281.15;225.73;;;20.10;48.20;;;;;;493038;54;21103;-21
2020/12/18 00:57:15;;;;;;;278.48;217.95;;;20.10;48.40;;;;;;492066;54;21282;-21
2020/12/18 00:57:45;;;;;;;284.58;222.27;;;20.10;48.50;;;;;;491015;54;21917;-20
2020/12/18 00:58:16;;;;;;;280.77;222.40;;;20.10;48.50;;;;;;498152;54;21932;-20
2020/12/18 00:58:47;;;;;;;273.48;214.93;;;20.10;48.30;;;;;;475995;55;21529;-21
2020/12/18 00:59:18;;;;;;;267.73;211.35;;;20.10;48.30;;;;;;497818;54;20925;-20
2020/12/18 00:59:49;;;;;;;270.27;212.27;;;20.10;48.30;;;;;;497264;54;20987;-22
2020/12/18 01:00:20;;;;;;;269.33;212.10;;;20.10;48.30;;;;;;498172;54;20964;-20
2020/12/18 01:00:52;;;;;;;282.83;223.25;;;20.10;48.30;;;;;;499187;54;21174;-20
2020/12/18 01:01:23;;;;;;;268.95;211.93;;;20.10;48.20;;;;;;475981;58;21859;-19
2020/12/18 01:02:02;;;;;;;277.73;217.27;;;20.10;48.50;;;;;;499755;54;21072;-18
2020/12/18 01:02:33;;;;;;;275.42;214.68;;;20.10;48.40;;;;;;483262;54;20972;-23
2020/12/18 01:03:04;;;;;;;276.80;217.45;;;20.10;48.50;;;;;;482393;54;20940;-21
2020/12/18 01:03:35;;;;;;;274.83;218.10;;;20.10;48.30;;;;;;489906;54;21031;-22
2020/12/18 01:04:06;;;;;;;272.08;211.12;;;20.10;48.40;;;;;;484795;54;21035;-23
2020/12/18 01:04:37;;;;;;;275.80;213.23;;;20.10;48.30;;;;;;481211;54;21043;-27
2020/12/18 01:05:08;;;;;;;274.60;218.63;;;20.10;48.50;;;;;;493104;54;21410;-24
2020/12/18 01:05:39;;;;;;;272.85;214.48;;;20.10;48.20;;;;;;483633;54;20956;-22
2020/12/18 01:06:11;;;;;;;272.95;217.40;;;20.10;48.40;;;;;;483706;54;20994;-21
2020/12/18 01:06:42;;;;;;;282.55;220.57;;;20.10;48.40;;;;;;525424;54;20976;-22
2020/12/18 01:07:13;;;;;;;271.58;213.48;;;20.10;48.30;;;;;;497165;54;21693;-22
2020/12/18 01:07:44;;;;;;;268.85;212.15;;;20.10;48.40;;;;;;476105;58;21011;-20
2020/12/18 01:08:16;;;;;;;276.17;219.23;;;20.10;48.20;;;;;;482701;54;21093;-19
2020/12/18 01:08:47;;;;;;;271.25;211.68;;;20.10;48.20;;;;;;476021;58;21442;-20
2020/12/18 01:09:26;;;;;;;275.65;220.85;;;20.10;48.40;;;;;;481731;54;21454;-21
2020/12/18 01:09:57;;;;;;;278.12;217.45;;;20.10;48.30;;;;;;492981;54;21153;-21
2020/12/18 01:10:28;;;;;;;276.20;219.40;;;20.10;48.20;;;;;;475969;58;21000;-23
2020/12/18 01:11:03;;;;;;;276.45;219.57;;;20.10;48.20;;;;;;493849;54;21051;-21
2020/12/18 01:11:37;;;;;;;276.65;217.70;;;20.10;48.10;;;;;;488437;54;20943;-22
2020/12/18 01:12:11;;;;;;;275.73;218.37;;;20.10;48.20;;;;;;476141;58;21405;-23
2020/12/18 01:12:42;;;;;;;273.33;211.68;;;20.10;48.30;;;;;;477620;54;21906;-21
2020/12/18 01:13:13;;;;;;;275.75;218.52;;;20.10;48.40;;;;;;504443;54;21525;-19
2020/12/18 01:13:44;;;;;;;272.77;212.43;;;20.10;48.40;;;;;;478760;54;20964;-19
2020/12/18 01:14:16;;;;;;;270.98;213.30;;;20.10;48.20;;;;;;525326;54;20940;-21
2020/12/18 01:14:47;;;;;;;270.23;214.50;;;20.00;48.10;;;;;;498778;54;20980;-16
2020/12/18 01:15:17;;;;;;;280.55;222.23;;;20.10;48.10;;;;;;482214;54;20936;-18
2020/12/18 01:15:48;;;;;;;271.25;213.10;;;20.10;49.00;;;;;;478598;54;21027;-18
2020/12/18 01:16:19;;;;;;;273.77;214.35;;;20.10;48.20;;;;;;479321;54;20972;-18
2020/12/18 01:16:55;;;;;;;272.42;215.45;;;20.10;48.30;;;;;;499281;54;21032;-20
2020/12/18 01:17:26;;;;;;;276.52;215.50;;;20.10;48.10;;;;;;490920;54;21027;-22
2020/12/18 01:17:57;;;;;;;272.48;217.55;;;20.10;48.10;;;;;;491494;54;20951;-22
2020/12/18 01:18:28;;;;;;;273.55;215.48;;;20.10;48.10;;;;;;480356;54;21011;-19
2020/12/18 01:18:59;;;;;;;273.40;215.05;;;20.10;48.10;;;;;;523949;54;21004;-20
2020/12/18 01:19:30;;;;;;;268.63;212.75;;;20.10;48.10;;;;;;492199;54;21008;-19
2020/12/18 01:20:00;;;;;;;273.25;210.73;;;20.10;48.10;;;;;;491616;54;21007;-17
2020/12/18 01:20:35;;;;;;;270.98;212.65;;;20.10;48.10;;;;;;519941;54;20964;-20
2020/12/18 01:21:06;;;;;;;266.08;208.70;;;20.10;48.10;;;;;;507196;54;21036;-22
2020/12/18 01:21:37;;;;;;;270.77;212.00;;;20.10;48.10;;;;;;482719;54;21057;-22
2020/12/18 01:22:08;;;;;;;267.23;212.38;;;20.00;48.20;;;;;;486156;54;21043;-21
2020/12/18 01:22:38;;;;;;;274.77;216.12;;;20.10;48.20;;;;;;525272;54;20992;-21
2020/12/18 01:23:09;;;;;;;269.75;209.87;;;20.10;48.30;;;;;;487544;54;21048;-21
2020/12/18 01:23:40;;;;;;;265.90;209.82;;;20.10;48.20;;;;;;488607;54;20980;-21
2020/12/18 01:24:11;;;;;;;268.77;206.98;;;20.10;48.00;;;;;;496875;54;20979;-22
2020/12/18 01:24:42;;;;;;;271.85;215.45;;;20.10;48.10;;;;;;491121;54;20964;-21
2020/12/18 01:25:13;;;;;;;269.55;215.68;;;20.10;48.20;;;;;;475932;58;21064;-17
2020/12/18 01:25:44;;;;;;;275.55;218.57;;;20.10;48.00;;;;;;487596;54;20920;-19
2020/12/18 01:26:15;;;;;;;263.77;206.85;;;20.10;48.00;;;;;;486947;54;20968;-22
2020/12/18 01:26:47;;;;;;;272.50;214.15;;;20.10;48.20;;;;;;490985;54;20969;-21
2020/12/18 01:27:18;;;;;;;267.67;212.25;;;20.10;48.20;;;;;;477210;54;21022;-22
2020/12/18 01:27:48;;;;;;;272.20;211.25;;;20.10;48.10;;;;;;476144;58;20996;-17
2020/12/18 01:28:19;;;;;;;267.95;207.32;;;20.00;48.00;;;;;;525149;54;20936;-20
2020/12/18 01:28:53;;;;;;;272.00;215.07;;;20.10;48.30;;;;;;499140;54;20992;-20
2020/12/18 01:29:24;;;;;;;274.20;219.48;;;20.10;48.20;;;;;;497163;54;20923;-21
2020/12/18 01:29:55;;;;;;;272.60;219.68;;;20.10;48.10;;;;;;481831;54;20968;-20
2020/12/18 01:30:26;;;;;;;274.48;216.98;;;20.00;48.20;;;;;;507360;54;21020;-19
2020/12/18 01:30:56;;;;;;;263.27;205.43;;;20.10;48.10;;;;;;500643;54;20932;-23
2020/12/18 01:31:27;;;;;;;268.27;210.50;;;20.00;48.00;;;;;;476641;54;20947;-22
2020/12/18 01:31:58;;;;;;;279.73;218.60;;;20.00;47.90;;;;;;478386;54;20964;-21
2020/12/18 01:32:29;;;;;;;263.75;208.25;;;20.10;48.10;;;;;;475915;58;21394;-21
2020/12/18 01:33:00;;;;;;;267.75;208.40;;;20.00;48.10;;;;;;476091;55;21394;-17
2020/12/18 01:33:31;;;;;;;277.83;215.15;;;20.10;48.00;;;;;;498990;54;21028;-19
2020/12/18 01:34:02;;;;;;;268.60;211.90;;;20.10;48.00;;;;;;525437;54;20968;-21
2020/12/18 01:34:33;;;;;;;257.65;204.10;;;20.10;48.10;;;;;;498525;54;20971;-20
2020/12/18 01:35:04;;;;;;;264.63;212.15;;;20.10;48.10;;;;;;483493;54;21035;-18
2020/12/18 01:35:34;;;;;;;262.77;208.98;;;20.10;48.10;;;;;;498933;54;20944;-20
2020/12/18 01:36:08;;;;;;;259.23;204.23;;;20.00;48.00;;;;;;476039;58;20963;-20
2020/12/18 01:36:39;;;;;;;259.48;206.85;;;20.10;48.10;;;;;;477293;54;21419;-23
2020/12/18 01:37:11;;;;;;;260.50;204.02;;;20.00;48.10;;;;;;485748;54;20976;-23
2020/12/18 01:37:42;;;;;;;267.95;207.82;;;20.00;47.90;;;;;;485787;54;20960;-23
2020/12/18 01:38:13;;;;;;;258.90;202.80;;;20.10;47.90;;;;;;477103;54;20955;-22
2020/12/18 01:38:44;;;;;;;267.80;209.32;;;20.10;47.90;;;;;;486843;54;20996;-23
2020/12/18 01:39:15;;;;;;;260.83;202.68;;;20.10;47.90;;;;;;475949;58;20948;-22
2020/12/18 01:39:46;;;;;;;280.20;220.20;;;20.10;48.00;;;;;;477180;54;20996;-23
2020/12/18 01:40:17;;;;;;;263.58;207.93;;;20.10;48.00;;;;;;525228;54;21019;-23
2020/12/18 01:40:48;;;;;;;272.45;214.00;;;20.10;48.90;;;;;;501715;54;22016;-22
2020/12/18 01:41:19;;;;;;;268.55;211.98;;;20.10;48.10;;;;;;520123;54;21505;-19
2020/12/18 01:41:50;;;;;;;272.30;219.52;;;20.10;48.10;;;;;;475904;58;20936;-23
2020/12/18 01:42:21;;;;;;;272.85;216.27;;;20.10;48.20;;;;;;502683;54;20984;-23
2020/12/18 01:42:52;;;;;;;268.30;208.45;;;20.10;48.20;;;;;;476334;55;21454;-21
2020/12/18 01:43:23;;;;;;;261.85;200.32;;;20.00;48.10;;;;;;500793;54;22062;-17
2020/12/18 01:43:54;;;;;;;264.08;208.70;;;20.00;47.90;;;;;;476131;58;20979;-20
2020/12/18 01:44:25;;;;;;;269.30;211.85;;;20.00;47.80;;;;;;501132;54;20960;-18
2020/12/18 01:44:55;;;;;;;269.50;211.87;;;20.10;47.90;;;;;;476658;54;21418;-19
2020/12/18 01:45:27;;;;;;;262.12;205.05;;;20.10;47.90;;;;;;504367;54;20964;-21
2020/12/18 01:46:02;;;;;;;264.35;204.65;;;20.10;48.10;;;;;;476001;58;20940;-20
2020/12/18 01:46:37;;;;;;;266.77;211.98;;;20.10;48.20;;;;;;493069;54;20976;-20
2020/12/18 01:47:30;;;;;;;271.17;212.68;;;20.10;48.00;;;;;;476127;58;20971;-25
2020/12/18 01:48:05;;;;;;;269.17;210.35;;;20.10;47.90;;;;;;484989;54;21016;-23
2020/12/18 01:48:39;;;;;;;266.60;210.73;;;20.00;48.00;;;;;;504781;54;20960;-22
2020/12/18 01:49:10;;;;;;;267.23;207.82;;;20.10;47.90;;;;;;491729;54;21000;-22
2020/12/18 01:49:41;;;;;;;265.02;207.65;;;20.10;48.80;;;;;;525435;54;20948;-22
2020/12/18 01:50:13;;;;;;;266.42;207.10;;;20.10;48.10;;;;;;477018;54;21516;-24
2020/12/18 01:50:44;;;;;;;275.38;216.07;;;20.10;48.00;;;;;;476140;58;21011;-22
2020/12/18 01:51:15;;;;;;;272.37;218.23;;;20.10;48.00;;;;;;476168;58;21450;-23
2020/12/18 01:51:50;;;;;;;270.67;213.80;;;20.10;48.70;;;;;;489289;54;20964;-20
2020/12/18 01:52:23;;;;;;;272.55;210.65;;;20.10;48.10;;;;;;508938;54;20984;-22
2020/12/18 01:52:54;;;;;;;268.05;211.35;;;20.10;47.90;;;;;;505304;54;20980;-21
2020/12/18 01:53:28;;;;;;;270.42;212.60;;;20.10;47.90;;;;;;503995;54;20928;-20
2020/12/18 01:54:00;;;;;;;267.70;209.85;;;20.10;47.90;;;;;;494470;54;20968;-19
2020/12/18 01:54:32;;;;;;;275.70;214.43;;;20.00;47.80;;;;;;495252;54;20969;-20
2020/12/18 01:55:07;;;;;;;264.88;207.60;;;20.00;47.80;;;;;;493433;54;20990;-21
2020/12/18 01:55:37;;;;;;;273.08;211.50;;;20.00;47.90;;;;;;494053;54;21005;-23
2020/12/18 01:56:08;;;;;;;269.55;212.90;;;20.00;48.00;;;;;;494153;54;21039;-23
2020/12/18 01:56:40;;;;;;;273.77;214.27;;;20.10;48.00;;;;;;493822;54;20995;-23
2020/12/18 01:57:12;;;;;;;267.70;209.52;;;20.00;48.00;;;;;;489430;54;21119;-23
2020/12/18 01:57:44;;;;;;;263.75;206.60;;;20.00;47.90;;;;;;525541;54;21019;-24
2020/12/18 01:58:15;;;;;;;266.80;206.07;;;20.10;47.90;;;;;;512343;54;20948;-22
2020/12/18 01:58:47;;;;;;;271.42;212.52;;;20.10;47.80;;;;;;492506;54;21008;-24
2020/12/18 01:59:19;;;;;;;261.90;203.30;;;20.10;47.80;;;;;;488848;54;20960;-23
2020/12/18 01:59:50;;;;;;;267.42;210.27;;;20.00;47.70;;;;;;483640;54;21003;-22
2020/12/18 02:00:22;;;;;;;270.65;211.18;;;20.00;47.90;;;;;;514423;54;21055;-23
2020/12/18 02:00:53;;;;;;;263.62;210.05;;;20.10;47.90;;;;;;491649;54;21061;-23
2020/12/18 02:01:24;;;;;;;263.12;211.15;;;20.10;47.80;;;;;;481207;54;21570;-22
2020/12/18 02:01:55;;;;;;;271.55;214.45;;;20.10;48.50;;;;;;487446;54;21402;-23
2020/12/18 02:02:27;;;;;;;266.83;212.35;;;20.10;47.90;;;;;;507367;54;21474;-22
2020/12/18 02:02:58;;;;;;;264.45;208.05;;;20.10;47.90;;;;;;521223;54;21157;-22
2020/12/18 02:03:29;;;;;;;267.13;207.68;;;20.00;47.90;;;;;;498195;54;20996;-21
2020/12/18 02:04:00;;;;;;;259.75;207.32;;;20.10;47.90;;;;;;479604;54;20956;-20
2020/12/18 02:04:31;;;;;;;263.73;204.43;;;20.10;47.90;;;;;;511834;54;20935;-20
2020/12/18 02:05:03;;;;;;;258.38;206.13;;;20.00;47.90;;;;;;503699;54;20940;-17
2020/12/18 02:05:33;;;;;;;260.17;207.18;;;20.00;47.90;;;;;;486048;54;20940;-18
2020/12/18 02:06:07;;;;;;;257.62;201.45;;;20.00;47.80;;;;;;476189;58;20988;-24
2020/12/18 02:06:42;;;;;;;264.80;213.30;;;20.00;47.90;;;;;;476112;58;20964;-20
2020/12/18 02:07:14;;;;;;;269.90;213.37;;;20.00;47.80;;;;;;502630;54;21047;-24
2020/12/18 02:07:55;;;;;;;262.90;204.98;;;20.00;47.80;;;;;;492330;54;21573;-23
2020/12/18 02:08:26;;;;;;;272.02;215.75;;;20.00;47.90;;;;;;476154;56;21038;-23
2020/12/18 02:08:57;;;;;;;268.23;212.98;;;20.10;47.80;;;;;;478546;54;21019;-21
2020/12/18 02:09:28;;;;;;;267.27;211.02;;;20.00;47.90;;;;;;493611;54;21020;-20
2020/12/18 02:09:59;;;;;;;264.98;207.93;;;20.00;47.80;;;;;;476117;58;20937;-17
2020/12/18 02:10:30;;;;;;;264.10;207.80;;;20.00;47.90;;;;;;499959;54;20920;-21
2020/12/18 02:11:01;;;;;;;263.02;206.32;;;20.00;47.80;;;;;;476092;58;20992;-21
2020/12/18 02:11:32;;;;;;;269.00;213.82;;;20.00;47.80;;;;;;483371;54;20952;-19
2020/12/18 02:12:04;;;;;;;260.60;205.60;;;20.00;47.70;;;;;;525521;54;20976;-21
2020/12/18 02:12:35;;;;;;;261.80;210.65;;;20.00;47.80;;;;;;525581;54;20964;-21
2020/12/18 02:13:06;;;;;;;260.90;203.73;;;20.10;47.80;;;;;;476133;58;20979;-21
2020/12/18 02:13:37;;;;;;;259.12;203.73;;;20.00;47.80;;;;;;510174;54;21027;-21
2020/12/18 02:14:13;;;;;;;272.02;214.18;;;20.00;47.80;;;;;;513885;54;20972;-23
2020/12/18 02:14:46;;;;;;;266.95;209.43;;;20.00;47.70;;;;;;503983;54;20912;-20
2020/12/18 02:15:20;;;;;;;263.25;208.20;;;20.00;47.90;;;;;;498948;54;21083;-19
2020/12/18 02:15:55;;;;;;;264.52;206.18;;;20.00;48.60;;;;;;476144;58;21059;-19
2020/12/18 02:16:25;;;;;;;267.08;206.52;;;20.00;47.90;;;;;;525476;54;20929;-19
2020/12/18 02:16:57;;;;;;;258.95;201.32;;;20.00;47.90;;;;;;490510;54;20936;-20
2020/12/18 02:17:28;;;;;;;263.52;206.00;;;20.00;47.90;;;;;;498206;54;20992;-20
2020/12/18 02:17:59;;;;;;;258.58;202.38;;;20.00;47.80;;;;;;476229;58;21067;-18
2020/12/18 02:18:31;;;;;;;264.85;205.30;;;20.10;47.90;;;;;;479737;54;20960;-18
2020/12/18 02:19:05;;;;;;;258.77;205.90;;;20.00;47.70;;;;;;488458;54;21027;-20
2020/12/18 02:19:39;;;;;;;273.20;214.05;;;20.00;47.80;;;;;;491042;54;21388;-20
2020/12/18 02:20:10;;;;;;;261.12;201.98;;;20.00;47.80;;;;;;504540;54;20968;-20
2020/12/18 02:20:41;;;;;;;267.33;208.10;;;20.00;47.80;;;;;;476008;58;21313;-20
2020/12/18 02:21:12;;;;;;;261.25;201.73;;;20.10;47.90;;;;;;494247;54;21430;-22
2020/12/18 02:21:42;;;;;;;259.27;200.93;;;20.00;48.00;;;;;;475957;58;21425;-22
2020/12/18 02:22:24;;;;;;;257.37;201.10;;;20.00;47.80;;;;;;476020;55;20940;-22
2020/12/18 02:22:55;;;;;;;257.60;202.45;;;20.00;47.80;;;;;;489333;54;21042;-19
2020/12/18 02:23:26;;;;;;;259.85;203.35;;;20.00;47.70;;;;;;496125;54;21004;-22
2020/12/18 02:23:56;;;;;;;262.63;209.30;;;20.00;47.60;;;;;;496848;54;20976;-19
2020/12/18 02:24:27;;;;;;;266.05;210.32;;;20.00;47.70;;;;;;475989;58;21035;-22
2020/12/18 02:25:07;;;;;;;261.48;206.05;;;20.00;47.70;;;;;;486206;54;20968;-21
2020/12/18 02:25:40;;;;;;;260.02;206.90;;;20.00;47.70;;;;;;476555;55;21047;-20
2020/12/18 02:26:13;;;;;;;269.60;214.57;;;20.00;47.80;;;;;;504790;54;21014;-19
2020/12/18 02:26:44;;;;;;;264.10;207.52;;;20.00;47.80;;;;;;476140;58;20951;-21
2020/12/18 02:27:14;;;;;;;262.00;205.77;;;20.00;47.60;;;;;;476518;55;21031;-17
2020/12/18 02:27:45;;;;;;;262.20;203.98;;;20.00;47.60;;;;;;497903;54;21039;-17
2020/12/18 02:28:16;;;;;;;260.10;201.75;;;20.00;47.80;;;;;;499043;54;20933;-21
2020/12/18 02:28:47;;;;;;;263.40;204.10;;;20.00;47.70;;;;;;476854;54;21462;-20
2020/12/18 02:29:18;;;;;;;249.95;198.25;;;20.10;47.60;;;;;;500523;54;20969;-17
2020/12/18 02:29:51;;;;;;;266.17;212.10;;;20.00;47.60;;;;;;505068;54;21485;-21
2020/12/18 02:30:22;;;;;;;263.87;210.77;;;20.00;47.60;;;;;;496714;54;20999;-19
2020/12/18 02:30:53;;;;;;;261.50;206.60;;;20.00;47.50;;;;;;499598;54;20912;-19
2020/12/18 02:31:24;;;;;;;266.67;212.40;;;20.00;47.80;;;;;;479108;54;20933;-17
2020/12/18 02:31:54;;;;;;;258.52;201.02;;;20.00;47.80;;;;;;479602;54;20987;-18
2020/12/18 02:32:25;;;;;;;260.08;203.62;;;20.00;47.70;;;;;;507957;54;20944;-22
2020/12/18 02:32:57;;;;;;;258.58;206.63;;;20.00;47.50;;;;;;476152;58;20975;-18
2020/12/18 02:33:30;;;;;;;263.08;209.20;;;20.00;47.50;;;;;;498503;54;21051;-22
2020/12/18 02:34:01;;;;;;;265.77;207.00;;;20.00;47.50;;;;;;476110;58;21011;-21
2020/12/18 02:34:34;;;;;;;267.52;206.43;;;20.00;47.80;;;;;;525608;54;20980;-24
2020/12/18 02:35:06;;;;;;;263.65;208.65;;;20.00;47.80;;;;;;518131;54;21278;-23
2020/12/18 02:35:37;;;;;;;265.10;208.10;;;20.00;47.70;;;;;;515630;54;21015;-22
2020/12/18 02:36:08;;;;;;;259.75;203.20;;;20.00;47.70;;;;;;516202;54;21004;-22
2020/12/18 02:36:39;;;;;;;263.62;205.60;;;20.00;47.70;;;;;;525337;54;20984;-21
2020/12/18 02:37:10;;;;;;;261.00;204.05;;;20.00;47.70;;;;;;476011;58;21043;-22
2020/12/18 02:37:41;;;;;;;270.12;210.23;;;20.00;47.70;;;;;;509269;54;20928;-23
2020/12/18 02:38:12;;;;;;;256.02;199.27;;;20.00;47.80;;;;;;492102;54;21944;-23
2020/12/18 02:38:42;;;;;;;258.17;203.30;;;20.00;47.70;;;;;;490430;54;21876;-19